createdAt,value
2023-12-05T00:00:03.857Z,75.20
2023-12-05T00:03:14.845Z,75.18
2023-12-05T00:06:16.838Z,74.65
2023-12-05T00:09:18.816Z,74.58
2023-12-05T00:12:20.828Z,74.29
2023-12-05T00:15:23.332Z,74.65
2023-12-05T00:18:26.289Z,74.33
2023-12-05T00:21:28.261Z,74.36
2023-12-05T00:24:30.712Z,74.72
2023-12-05T00:27:33.052Z,75.29
2023-12-05T00:30:34.986Z,75.02
2023-12-05T00:33:37.092Z,75.12
2023-12-05T00:36:39.310Z,75.38
2023-12-05T00:39:42.401Z,75.45
2023-12-05T00:42:45.434Z,75.35
2023-12-05T00:45:47.446Z,75.28
2023-12-05T00:48:49.813Z,75.28
2023-12-05T00:51:51.953Z,75.42
2023-12-05T00:54:54.001Z,75.76
2023-12-05T00:57:56.446Z,75.50
2023-12-05T01:00:59.128Z,75.68
2023-12-05T01:04:01.548Z,75.61
2023-12-05T01:07:04.220Z,75.81
2023-12-05T01:10:06.886Z,75.68
2023-12-05T01:13:08.957Z,75.67
2023-12-05T01:16:12.118Z,75.83
2023-12-05T01:19:14.141Z,76.22
2023-12-05T01:22:16.141Z,76.33
2023-12-05T01:25:18.378Z,76.43
2023-12-05T01:28:20.262Z,76.59
2023-12-05T01:31:22.693Z,76.54
2023-12-05T01:34:24.840Z,76.59
2023-12-05T01:37:26.789Z,76.44
2023-12-05T01:40:28.822Z,76.42
2023-12-05T01:43:31.291Z,76.66
2023-12-05T01:46:33.676Z,76.67
2023-12-05T01:49:37.072Z,76.52
2023-12-05T01:52:47.949Z,76.55
2023-12-05T01:55:51.020Z,76.41
2023-12-05T01:58:53.018Z,76.83
2023-12-05T02:01:55.744Z,76.80
2023-12-05T02:04:58.311Z,76.57
2023-12-05T02:08:01.317Z,76.74
2023-12-05T02:11:03.567Z,77.05
2023-12-05T02:14:08.360Z,76.90
2023-12-05T02:17:25.685Z,77.06
2023-12-05T02:20:37.001Z,76.91
2023-12-05T02:24:03.691Z,77.08
2023-12-05T02:27:39.438Z,77.10
2023-12-05T02:30:41.966Z,77.02
2023-12-05T02:33:44.007Z,77.08
2023-12-05T02:36:57.015Z,77.10
2023-12-05T02:40:05.603Z,76.90
2023-12-05T02:43:17.391Z,76.85
2023-12-05T02:46:21.019Z,76.64
2023-12-05T02:49:23.619Z,76.86
2023-12-05T02:52:25.631Z,76.90
2023-12-05T02:55:27.526Z,76.80
2023-12-05T02:58:30.279Z,76.55
2023-12-05T03:01:39.598Z,76.13
2023-12-05T03:04:41.652Z,76.21
2023-12-05T03:07:43.692Z,76.51
2023-12-05T03:10:54.742Z,76.37
2023-12-05T03:14:03.983Z,76.11
2023-12-05T03:17:06.042Z,75.75
2023-12-05T03:20:08.698Z,75.54
2023-12-05T03:23:10.884Z,75.57
2023-12-05T03:26:20.608Z,74.96
2023-12-05T03:29:22.519Z,74.74
2023-12-05T03:32:24.632Z,74.17
2023-12-05T03:35:26.616Z,74.16
2023-12-05T03:38:28.525Z,73.68
2023-12-05T03:41:30.549Z,73.48
2023-12-05T03:44:32.522Z,73.48
2023-12-05T03:47:34.560Z,73.57
2023-12-05T03:50:36.636Z,73.50
2023-12-05T03:53:38.580Z,73.70
2023-12-05T03:56:40.506Z,73.70
2023-12-05T03:59:42.560Z,73.52
2023-12-05T04:02:46.305Z,73.68
2023-12-05T04:05:48.329Z,73.82
2023-12-05T04:08:51.288Z,73.91
2023-12-05T04:11:53.354Z,73.89
2023-12-05T04:14:55.705Z,73.56
2023-12-05T04:17:57.872Z,73.25
2023-12-05T04:20:59.988Z,72.75
2023-12-05T04:24:01.949Z,72.40
2023-12-05T04:27:04.913Z,72.20
2023-12-05T04:30:08.083Z,71.91
2023-12-05T04:33:10.227Z,71.88
2023-12-05T04:36:12.762Z,71.69
2023-12-05T04:39:14.828Z,71.61
2023-12-05T04:42:16.858Z,71.78
2023-12-05T04:45:18.812Z,71.36
2023-12-05T04:48:20.887Z,71.50
2023-12-05T04:51:22.873Z,71.52
2023-12-05T04:54:24.972Z,71.27
2023-12-05T04:57:29.615Z,71.26
2023-12-05T05:00:32.910Z,71.46
2023-12-05T05:03:34.940Z,71.39
2023-12-05T05:06:37.055Z,71.68
2023-12-05T05:09:42.058Z,71.52
2023-12-05T05:12:44.054Z,71.25
2023-12-05T05:15:46.185Z,71.63
2023-12-05T05:18:49.151Z,71.93
2023-12-05T05:21:51.315Z,72.07
2023-12-05T05:24:53.422Z,72.11
2023-12-05T05:27:55.581Z,72.20
2023-12-05T05:30:58.870Z,72.08
2023-12-05T05:34:01.088Z,72.44
2023-12-05T05:37:03.632Z,72.26
2023-12-05T05:40:08.016Z,72.47
2023-12-05T05:43:10.673Z,72.54
2023-12-05T05:46:13.082Z,72.19
2023-12-05T05:49:15.156Z,71.62
2023-12-05T05:52:17.168Z,70.89
2023-12-05T05:55:26.119Z,70.24
2023-12-05T05:58:29.249Z,69.44
2023-12-05T06:01:31.435Z,68.70
2023-12-05T06:04:33.477Z,68.06
2023-12-05T06:07:35.686Z,67.70
2023-12-05T06:10:37.664Z,66.97
2023-12-05T06:13:39.671Z,67.10
2023-12-05T06:16:41.685Z,66.72
2023-12-05T06:19:43.790Z,66.69
2023-12-05T06:22:45.817Z,66.20
2023-12-05T06:25:47.754Z,66.13
2023-12-05T06:28:49.745Z,65.76
2023-12-05T06:31:51.670Z,65.25
2023-12-05T06:34:53.627Z,65.14
2023-12-05T06:37:55.680Z,65.22
2023-12-05T06:40:57.689Z,65.30
2023-12-05T06:43:59.600Z,65.23
2023-12-05T06:47:01.548Z,65.26
2023-12-05T06:50:12.414Z,65.63
2023-12-05T06:53:14.961Z,65.47
2023-12-05T06:56:17.612Z,65.46
2023-12-05T06:59:20.743Z,65.21
2023-12-05T07:02:22.676Z,64.44
2023-12-05T07:05:24.794Z,64.25
2023-12-05T07:08:28.044Z,63.91
2023-12-05T07:11:29.961Z,63.47
2023-12-05T07:14:35.917Z,63.25
2023-12-05T07:17:38.987Z,63.25
2023-12-05T07:20:41.139Z,62.95
2023-12-05T07:23:46.671Z,62.25
2023-12-05T07:26:51.886Z,62.29
2023-12-05T07:29:53.845Z,61.96
2023-12-05T07:32:55.936Z,61.65
2023-12-05T07:35:59.024Z,61.66
2023-12-05T07:39:00.977Z,61.40
2023-12-05T07:42:02.983Z,61.35
2023-12-05T07:45:06.762Z,61.18
2023-12-05T07:48:08.728Z,60.99
2023-12-05T07:51:15.817Z,60.93
2023-12-05T07:54:18.210Z,60.70
2023-12-05T07:57:23.681Z,60.59
2023-12-05T08:00:25.761Z,60.60
2023-12-05T08:03:27.865Z,60.48
2023-12-05T08:06:30.032Z,60.49
2023-12-05T08:09:32.288Z,60.25
2023-12-05T08:12:35.248Z,60.16
2023-12-05T08:15:37.341Z,59.70
2023-12-05T08:18:39.332Z,59.86
2023-12-05T08:21:41.306Z,60.15
2023-12-05T08:24:43.313Z,59.95
2023-12-05T08:27:45.331Z,60.17
2023-12-05T08:30:47.240Z,60.23
2023-12-05T08:33:49.863Z,60.35
2023-12-05T08:36:52.111Z,60.46
2023-12-05T08:39:54.124Z,60.34
2023-12-05T08:42:56.099Z,60.22
2023-12-05T08:45:58.117Z,60.25
2023-12-05T08:49:00.169Z,60.42
2023-12-05T08:52:02.253Z,60.25
2023-12-05T08:55:05.730Z,60.04
2023-12-05T08:58:07.991Z,60.17
2023-12-05T09:01:13.165Z,60.12
2023-12-05T09:04:15.456Z,60.04
2023-12-05T09:07:17.615Z,60.00
2023-12-05T09:10:20.351Z,59.74
2023-12-05T09:13:22.505Z,59.86
2023-12-05T09:16:24.480Z,59.77
2023-12-05T09:19:26.409Z,59.86
2023-12-05T09:22:29.423Z,60.02
2023-12-05T09:25:31.326Z,59.67
2023-12-05T09:28:33.792Z,59.08
2023-12-05T09:31:36.360Z,59.46
2023-12-05T09:34:38.517Z,59.30
2023-12-05T09:37:40.494Z,59.26
2023-12-05T09:40:42.445Z,59.42
2023-12-05T09:43:46.082Z,59.37
2023-12-05T09:46:52.208Z,59.35
2023-12-05T09:49:56.607Z,59.30
2023-12-05T09:53:00.812Z,59.02
2023-12-05T09:56:03.261Z,59.48
2023-12-05T09:59:05.159Z,59.31
2023-12-05T10:02:09.557Z,59.48
2023-12-05T10:05:17.290Z,59.38
2023-12-05T10:08:21.852Z,59.30
2023-12-05T10:11:28.381Z,59.53
2023-12-05T10:14:30.452Z,59.47
2023-12-05T10:17:34.550Z,59.33
2023-12-05T10:20:39.773Z,59.20
2023-12-05T10:23:41.951Z,59.13
2023-12-05T10:26:48.316Z,59.10
2023-12-05T10:29:50.314Z,59.12
2023-12-05T10:32:52.276Z,58.94
2023-12-05T10:35:54.496Z,58.91
2023-12-05T10:38:56.695Z,58.75
2023-12-05T10:41:58.619Z,58.77
2023-12-05T10:45:06.364Z,58.82
2023-12-05T10:48:08.829Z,58.64
2023-12-05T10:51:10.940Z,58.57
2023-12-05T10:54:14.313Z,58.54
2023-12-05T10:57:16.279Z,58.41
2023-12-05T11:00:20.006Z,58.60
2023-12-05T11:03:23.557Z,58.37
2023-12-05T11:06:27.436Z,58.58
2023-12-05T11:09:29.463Z,58.66
2023-12-05T11:12:32.269Z,58.63
2023-12-05T11:15:40.069Z,58.45
2023-12-05T11:18:45.187Z,58.52
2023-12-05T11:22:12.000Z,58.50
2023-12-05T11:25:25.507Z,58.47
2023-12-05T11:28:27.464Z,58.49
2023-12-05T11:31:38.522Z,58.18
2023-12-05T11:35:00.379Z,58.37
2023-12-05T11:38:13.782Z,58.34
2023-12-05T11:41:22.295Z,58.48
2023-12-05T11:44:24.397Z,58.67
2023-12-05T11:47:29.786Z,58.51
2023-12-05T11:50:49.998Z,58.45
2023-12-05T11:53:51.935Z,58.60
2023-12-05T11:57:11.725Z,58.30
2023-12-05T12:00:14.416Z,58.56
2023-12-05T12:03:16.497Z,58.38
2023-12-05T12:06:20.558Z,58.33
2023-12-05T12:09:23.282Z,58.30
2023-12-05T12:12:25.810Z,58.76
2023-12-05T12:15:37.314Z,58.72
2023-12-05T12:18:44.136Z,59.02
2023-12-05T12:21:53.279Z,59.03
2023-12-05T12:25:06.406Z,59.20
2023-12-05T12:28:08.302Z,59.56
2023-12-05T12:31:25.960Z,59.65
2023-12-05T12:34:28.746Z,59.60
2023-12-05T12:37:37.699Z,59.60
2023-12-05T12:40:44.975Z,59.40
2023-12-05T12:43:47.815Z,59.68
2023-12-05T12:46:49.714Z,59.57
2023-12-05T12:49:52.301Z,59.55
2023-12-05T12:52:55.980Z,59.55
2023-12-05T12:55:58.098Z,60.04
2023-12-05T12:59:04.306Z,59.84
2023-12-05T13:02:07.679Z,59.98
2023-12-05T13:05:09.915Z,60.03
2023-12-05T13:08:14.648Z,60.03
2023-12-05T13:11:18.156Z,60.20
2023-12-05T13:14:20.911Z,60.63
2023-12-05T13:17:23.194Z,60.38
2023-12-05T13:20:25.396Z,60.43
2023-12-05T13:23:27.413Z,60.60
2023-12-05T13:26:29.472Z,60.80
2023-12-05T13:29:31.627Z,60.96
2023-12-05T13:32:33.626Z,61.04
2023-12-05T13:35:35.624Z,61.01
2023-12-05T13:38:41.248Z,61.28
2023-12-05T13:41:43.783Z,61.58
2023-12-05T13:44:46.314Z,61.44
2023-12-05T13:47:48.414Z,61.39
2023-12-05T13:50:50.430Z,61.50
2023-12-05T13:53:52.464Z,61.37
2023-12-05T13:56:54.964Z,61.75
2023-12-05T13:59:56.931Z,61.82
2023-12-05T14:02:58.920Z,61.84
2023-12-05T14:06:01.309Z,61.79
2023-12-05T14:09:03.995Z,61.87
2023-12-05T14:12:12.714Z,62.07
2023-12-05T14:15:14.960Z,62.09
2023-12-05T14:18:17.004Z,62.15
2023-12-05T14:21:19.091Z,62.56
2023-12-05T14:24:20.963Z,62.58
2023-12-05T14:27:25.792Z,62.84
2023-12-05T14:30:28.116Z,63.03
2023-12-05T14:33:30.246Z,63.25
2023-12-05T14:36:32.344Z,63.59
2023-12-05T14:39:34.278Z,63.70
2023-12-05T14:42:38.877Z,63.94
2023-12-05T14:45:41.206Z,64.10
2023-12-05T14:48:43.236Z,64.29
2023-12-05T14:51:45.175Z,64.68
2023-12-05T14:54:47.261Z,64.48
2023-12-05T14:57:50.140Z,64.71
2023-12-05T15:00:55.145Z,64.86
2023-12-05T15:03:57.622Z,65.21
2023-12-05T15:07:00.099Z,65.15
2023-12-05T15:10:02.631Z,65.23
2023-12-05T15:13:04.713Z,65.41
2023-12-05T15:16:06.986Z,65.57
2023-12-05T15:19:10.551Z,65.51
2023-12-05T15:22:12.624Z,65.33
2023-12-05T15:25:14.847Z,65.47
2023-12-05T15:28:18.142Z,65.51
2023-12-05T15:31:20.267Z,65.39
2023-12-05T15:34:22.544Z,65.41
2023-12-05T15:37:24.687Z,65.53
2023-12-05T15:40:27.117Z,65.66
2023-12-05T15:43:29.008Z,65.23
2023-12-05T15:46:31.006Z,65.52
2023-12-05T15:49:33.926Z,65.54
2023-12-05T15:52:36.935Z,65.48
2023-12-05T15:55:38.989Z,65.50
2023-12-05T15:58:42.544Z,65.45
2023-12-05T16:01:47.380Z,65.54
2023-12-05T16:04:50.047Z,65.49
2023-12-05T16:07:52.040Z,65.36
2023-12-05T16:10:54.029Z,65.27
2023-12-05T16:13:56.181Z,65.55
2023-12-05T16:16:58.607Z,65.34
2023-12-05T16:20:00.710Z,65.39
2023-12-05T16:23:02.678Z,65.62
2023-12-05T16:26:05.127Z,65.76
2023-12-05T16:29:07.224Z,65.31
2023-12-05T16:32:09.199Z,65.19
2023-12-05T16:35:12.044Z,65.31
2023-12-05T16:38:13.996Z,65.26
2023-12-05T16:41:16.421Z,65.09
2023-12-05T16:44:18.307Z,64.92
2023-12-05T16:47:21.109Z,65.01
2023-12-05T16:50:23.304Z,65.02
2023-12-05T16:53:25.334Z,64.91
2023-12-05T16:56:27.422Z,64.85
2023-12-05T16:59:33.983Z,64.78
2023-12-05T17:02:37.315Z,64.95
2023-12-05T17:05:41.042Z,64.88
2023-12-05T17:08:43.034Z,64.89
2023-12-05T17:11:45.671Z,64.77
2023-12-05T17:14:47.758Z,64.84
2023-12-05T17:17:49.736Z,64.91
2023-12-05T17:20:51.746Z,65.09
2023-12-05T17:23:55.745Z,64.85
2023-12-05T17:26:57.803Z,65.08
2023-12-05T17:29:59.778Z,64.80
2023-12-05T17:33:01.863Z,64.97
2023-12-05T17:36:04.072Z,64.57
2023-12-05T17:39:06.032Z,64.67
2023-12-05T17:42:07.947Z,64.63
2023-12-05T17:45:10.279Z,64.64
2023-12-05T17:48:12.377Z,64.37
2023-12-05T17:51:14.488Z,64.54
2023-12-05T17:54:17.518Z,64.51
2023-12-05T17:57:23.128Z,64.58
2023-12-05T18:00:25.104Z,64.65
2023-12-05T18:03:27.555Z,64.52
2023-12-05T18:06:29.795Z,64.59
2023-12-05T18:09:31.830Z,64.69
2023-12-05T18:12:34.538Z,64.87
2023-12-05T18:15:36.657Z,65.09
2023-12-05T18:18:38.815Z,64.83
2023-12-05T18:21:40.976Z,65.32
2023-12-05T18:24:43.115Z,65.46
2023-12-05T18:27:45.872Z,65.83
2023-12-05T18:30:47.983Z,66.06
2023-12-05T18:33:51.318Z,66.32
2023-12-05T18:36:58.157Z,66.27
2023-12-05T18:40:00.668Z,66.38
2023-12-05T18:43:02.687Z,66.44
2023-12-05T18:46:05.706Z,66.61
2023-12-05T18:49:08.292Z,66.79
2023-12-05T18:52:10.384Z,67.00
2023-12-05T18:55:12.757Z,67.22
2023-12-05T18:58:14.675Z,67.40
2023-12-05T19:01:16.908Z,67.56
2023-12-05T19:04:19.269Z,67.72
2023-12-05T19:07:21.534Z,67.78
2023-12-05T19:10:24.000Z,68.19
2023-12-05T19:13:25.999Z,68.41
2023-12-05T19:16:27.961Z,68.38
2023-12-05T19:19:30.015Z,68.13
2023-12-05T19:22:31.981Z,68.23
2023-12-05T19:25:34.151Z,68.18
2023-12-05T19:28:46.209Z,67.86
2023-12-05T19:31:53.545Z,67.83
2023-12-05T19:34:55.640Z,67.63
2023-12-05T19:37:57.683Z,67.49
2023-12-05T19:40:59.671Z,67.76
2023-12-05T19:44:01.691Z,67.99
2023-12-05T19:47:03.965Z,67.93
2023-12-05T19:50:06.789Z,68.20
2023-12-05T19:53:08.781Z,68.20
2023-12-05T19:56:12.841Z,68.22
2023-12-05T19:59:15.065Z,68.48
2023-12-05T20:02:17.104Z,68.18
2023-12-05T20:05:19.159Z,68.49
2023-12-05T20:08:21.768Z,68.49
2023-12-05T20:11:23.822Z,68.45
2023-12-05T20:14:25.838Z,68.64
2023-12-05T20:17:29.513Z,68.71
2023-12-05T20:20:31.766Z,68.82
2023-12-05T20:23:34.945Z,68.58
2023-12-05T20:26:36.892Z,69.15
2023-12-05T20:29:38.892Z,69.05
2023-12-05T20:32:40.841Z,68.81
2023-12-05T20:35:42.840Z,69.20
2023-12-05T20:38:45.747Z,69.14
2023-12-05T20:41:47.888Z,69.01
2023-12-05T20:44:51.708Z,68.82
2023-12-05T20:47:53.735Z,68.91
2023-12-05T20:50:55.760Z,68.92
2023-12-05T20:53:57.687Z,68.95
2023-12-05T20:56:59.705Z,68.96
2023-12-05T21:00:02.297Z,69.01
2023-12-05T21:03:04.934Z,68.97
2023-12-05T21:06:08.771Z,69.01
2023-12-05T21:09:13.481Z,69.16
2023-12-05T21:12:15.883Z,69.14
2023-12-05T21:15:18.172Z,69.22
2023-12-05T21:18:20.443Z,69.04
2023-12-05T21:21:22.737Z,69.18
2023-12-05T21:24:24.801Z,69.09
2023-12-05T21:27:26.788Z,69.09
2023-12-05T21:30:28.665Z,68.93
2023-12-05T21:33:30.822Z,69.20
2023-12-05T21:36:33.239Z,69.10
2023-12-05T21:39:35.343Z,69.29
2023-12-05T21:42:37.330Z,69.19
2023-12-05T21:45:39.549Z,69.20
2023-12-05T21:48:41.595Z,69.28
2023-12-05T21:51:43.835Z,69.04
2023-12-05T21:54:45.836Z,69.24
2023-12-05T21:57:47.895Z,69.22
2023-12-05T22:00:49.978Z,69.15
2023-12-05T22:03:51.979Z,69.18
2023-12-05T22:06:53.967Z,69.27
2023-12-05T22:09:56.003Z,69.37
2023-12-05T22:12:58.070Z,69.37
2023-12-05T22:16:01.170Z,69.59
2023-12-05T22:19:03.393Z,69.48
2023-12-05T22:22:05.536Z,69.61
2023-12-05T22:25:07.944Z,69.83
2023-12-05T22:28:09.972Z,69.59
2023-12-05T22:31:14.795Z,69.84
2023-12-05T22:34:18.370Z,69.87
2023-12-05T22:37:21.265Z,69.91
2023-12-05T22:40:23.380Z,69.87
2023-12-05T22:43:46.805Z,70.05
2023-12-05T22:46:52.104Z,70.17
2023-12-05T22:49:54.103Z,70.33
2023-12-05T22:52:56.109Z,70.56
2023-12-05T22:55:57.987Z,70.65
2023-12-05T22:58:59.991Z,70.83
2023-12-05T23:02:01.921Z,70.90
2023-12-05T23:05:04.708Z,71.14
2023-12-05T23:08:06.667Z,71.35
2023-12-05T23:11:08.651Z,71.39
2023-12-05T23:14:10.872Z,71.35
2023-12-05T23:17:13.233Z,71.82
2023-12-05T23:20:15.542Z,71.75
2023-12-05T23:23:17.487Z,71.95
2023-12-05T23:26:19.995Z,72.55
2023-12-05T23:29:21.952Z,72.57
2023-12-05T23:32:23.923Z,72.83
2023-12-05T23:35:25.837Z,72.85
2023-12-05T23:38:27.813Z,73.15
2023-12-05T23:41:29.789Z,72.93
2023-12-05T23:44:31.783Z,72.89
2023-12-05T23:47:33.766Z,72.74
2023-12-05T23:50:35.774Z,72.58
2023-12-05T23:53:37.709Z,72.56
2023-12-05T23:56:39.919Z,72.48
2023-12-05T23:59:41.925Z,72.81
